Time,TemperatureF,DewpointF,PressureIn,WindDirection,WindDirectionDegrees,WindSpeedMPH,WindSpeedGustMPH,Humidity,HourlyPrecipIn,Conditions,Clouds,dailyrainin,SolarRadiationWatts/m^2,SoftwareType,DateUTC
2013-04-19 07:43:00,63.6,59.7,29.82,SE,128,4.0,5.0,87,0.00,,,0.00,1450,Wunderground v.1.15,2013-04-19 11:43:00,
2013-04-19 07:44:00,63.6,59.7,29.82,SSE,157,4.0,5.0,87,0.00,,,0.00,1448,Wunderground v.1.15,2013-04-19 11:44:00,
2013-04-19 07:45:00,63.6,59.7,29.82,SE,134,4.0,6.0,87,0.00,,,0.00,1448,Wunderground v.1.15,2013-04-19 11:45:00,
2013-04-19 07:46:00,63.7,59.8,29.82,SE,130,4.0,6.0,87,0.00,,,0.00,1448,Wunderground v.1.15,2013-04-19 11:46:00,
2013-04-19 07:48:00,63.8,59.9,29.82,SE,140,4.0,6.0,87,0.00,,,0.00,1447,Wunderground v.1.15,2013-04-19 11:48:00,
2013-04-19 07:54:00,64.0,60.1,29.82,SE,129,4.0,7.0,87,0.00,,,0.00,1443,Wunderground v.1.15,2013-04-19 11:54:00,
2013-04-19 07:59:00,64.1,60.2,29.82,ESE,109,5.0,7.0,87,0.00,,,0.00,1440,Wunderground v.1.15,2013-04-19 11:59:00,
2013-04-19 08:04:00,64.2,60.2,29.81,ESE,119,5.0,8.0,87,0.00,,,0.00,1438,Wunderground v.1.15,2013-04-19 12:04:00,
2013-04-19 08:10:00,64.2,60.2,29.81,SE,133,5.0,5.0,87,0.00,,,0.00,1436,Wunderground v.1.15,2013-04-19 12:10:00,
2013-04-19 08:15:00,64.3,60.3,29.81,ESE,114,5.0,8.0,87,0.00,,,0.00,1436,Wunderground v.1.15,2013-04-19 12:15:00,
2013-04-19 08:21:00,64.4,60.4,29.81,SSE,148,4.0,4.0,87,0.00,,,0.00,1434,Wunderground v.1.15,2013-04-19 12:21:00,
2013-04-19 08:26:00,64.6,60.3,29.81,SE,146,4.0,5.0,86,0.00,,,0.00,1434,Wunderground v.1.15,2013-04-19 12:26:00,
2013-04-19 08:31:00,64.9,60.6,29.81,SE,145,3.0,3.0,86,0.00,,,0.00,1433,Wunderground v.1.15,2013-04-19 12:31:00,
2013-04-19 08:37:00,65.2,60.9,29.80,SE,145,2.0,3.0,86,0.00,,,0.00,1429,Wunderground v.1.15,2013-04-19 12:37:00,
2013-04-19 08:42:00,65.6,61.0,29.79,SE,141,2.0,5.0,85,0.00,,,0.00,1426,Wunderground v.1.15,2013-04-19 12:42:00,
2013-04-19 08:48:00,66.1,61.1,29.80,South,175,3.0,5.0,84,0.00,,,0.00,1426,Wunderground v.1.15,2013-04-19 12:48:00,
2013-04-19 08:53:00,66.3,61.0,29.79,SSE,163,4.0,8.0,83,0.00,,,0.00,1427,Wunderground v.1.15,2013-04-19 12:53:00,
2013-04-19 08:59:00,66.6,61.3,29.79,SE,132,5.0,8.0,83,0.00,,,0.00,1431,Wunderground v.1.15,2013-04-19 12:59:00,
2013-04-19 09:04:00,66.6,60.9,29.78,South,171,5.0,7.0,82,0.00,,,0.00,1438,Wunderground v.1.15,2013-04-19 13:04:00,
2013-04-19 09:10:00,66.9,61.6,29.78,SSE,153,6.0,6.0,83,0.00,,,0.00,1445,Wunderground v.1.15,2013-04-19 13:10:00,
2013-04-19 09:15:00,67.5,61.8,29.78,SSE,159,4.0,6.0,82,0.00,,,0.00,1443,Wunderground v.1.15,2013-04-19 13:15:00,
2013-04-19 09:21:00,68.1,61.7,29.77,South,173,5.0,13.0,80,0.00,,,0.00,1440,Wunderground v.1.15,2013-04-19 13:21:00,
2013-04-19 09:26:00,68.3,61.9,29.77,SSE,162,7.0,13.0,80,0.00,,,0.00,1443,Wunderground v.1.15,2013-04-19 13:26:00,
2013-04-19 09:31:00,68.6,62.2,29.76,SSE,159,7.0,8.0,80,0.00,,,0.00,1452,Wunderground v.1.15,2013-04-19 13:31:00,
2013-04-19 09:37:00,69.7,62.9,29.76,SE,132,7.0,9.0,79,0.00,,,0.00,1452,Wunderground v.1.15,2013-04-19 13:37:00,
2013-04-19 09:42:00,69.2,62.4,29.76,ESE,114,7.0,8.0,79,0.00,,,0.00,1470,Wunderground v.1.15,2013-04-19 13:42:00,
2013-04-19 09:48:00,68.4,62.0,29.76,SE,132,7.0,10.0,80,0.00,,,0.00,1494,Wunderground v.1.15,2013-04-19 13:48:00,
2013-04-19 09:53:00,68.2,61.8,29.76,SE,130,6.0,7.0,80,0.00,,,0.00,,Wunderground v.1.15,2013-04-19 13:53:00,
2013-04-19 09:58:00,67.9,61.9,29.76,SE,138,5.0,11.0,81,0.00,,,0.00,,Wunderground v.1.15,2013-04-19 13:58:00,
2013-04-19 10:04:00,67.7,61.7,29.76,ESE,122,5.0,7.0,81,0.00,,,0.00,,Wunderground v.1.15,2013-04-19 14:04:00,
2013-04-19 10:09:00,67.7,61.7,29.76,SSE,151,5.0,7.0,81,0.00,,,0.00,,Wunderground v.1.15,2013-04-19 14:09:00,
2013-04-19 10:15:00,67.7,62.0,29.76,SE,144,5.0,8.0,82,0.00,,,0.00,,Wunderground v.1.15,2013-04-19 14:15:00,
2013-04-19 10:20:00,67.8,61.8,29.76,SE,128,6.0,6.0,81,0.00,,,0.00,,Wunderground v.1.15,2013-04-19 14:20:00,
2013-04-19 10:26:00,68.1,62.0,29.75,SE,132,6.0,8.0,81,0.00,,,0.00,,Wunderground v.1.15,2013-04-19 14:26:00,
2013-04-19 10:31:00,68.3,62.2,29.75,SSE,165,5.0,5.0,81,0.00,,,0.00,,Wunderground v.1.15,2013-04-19 14:31:00,
2013-04-19 10:37:00,68.4,62.0,29.75,SSE,165,5.0,10.0,80,0.00,,,0.00,,Wunderground v.1.15,2013-04-19 14:37:00,
2013-04-19 10:42:00,68.3,61.9,29.75,SE,146,6.0,6.0,80,0.00,,,0.00,,Wunderground v.1.15,2013-04-19 14:42:00,
2013-04-19 10:48:00,68.1,62.0,29.75,ESE,121,6.0,11.0,81,0.00,,,0.00,,Wunderground v.1.15,2013-04-19 14:48:00,
2013-04-19 10:53:00,68.0,61.9,29.75,SSE,150,5.0,5.0,81,0.00,,,0.00,,Wunderground v.1.15,2013-04-19 14:53:00,
2013-04-19 10:58:00,68.0,61.9,29.75,SSE,157,4.0,5.0,81,0.00,,,0.00,,Wunderground v.1.15,2013-04-19 14:58:00,
2013-04-19 11:04:00,67.9,61.9,29.75,SSE,156,4.0,4.0,81,0.00,,,0.00,,Wunderground v.1.15,2013-04-19 15:04:00,
2013-04-19 11:10:00,67.9,62.2,29.75,South,190,3.0,5.0,82,0.00,,,0.00,,Wunderground v.1.15,2013-04-19 15:10:00,
2013-04-19 11:15:00,67.9,62.2,29.75,SE,127,3.0,6.0,82,0.00,,,0.00,,Wunderground v.1.15,2013-04-19 15:15:00,
2013-04-19 11:20:00,68.1,62.4,29.74,SSE,159,3.0,3.0,82,0.00,,,0.00,1499,Wunderground v.1.15,2013-04-19 15:20:00,
2013-04-19 11:26:00,68.1,62.4,29.74,SSE,155,2.0,6.0,82,0.00,,,0.00,1496,Wunderground v.1.15,2013-04-19 15:26:00,
2013-04-19 11:31:00,68.2,62.5,29.74,SE,146,2.0,2.0,82,0.00,,,0.00,1496,Wunderground v.1.15,2013-04-19 15:31:00,
2013-04-19 11:37:00,68.5,62.8,29.74,South,175,2.0,3.0,82,0.00,,,0.00,1491,Wunderground v.1.15,2013-04-19 15:37:00,
2013-04-19 11:42:00,68.6,62.5,29.74,SE,143,2.0,5.0,81,0.00,,,0.00,1489,Wunderground v.1.15,2013-04-19 15:42:00,
2013-04-19 11:47:00,68.8,62.7,29.74,South,177,3.0,5.0,81,0.00,,,0.00,1487,Wunderground v.1.15,2013-04-19 15:47:00,
2013-04-19 11:53:00,69.0,62.6,29.73,SSW,197,3.0,7.0,80,0.00,,,0.00,1489,Wunderground v.1.15,2013-04-19 15:53:00,
2013-04-19 11:58:00,69.5,62.3,29.73,SW,225,4.0,7.0,78,0.00,,,0.00,1492,Wunderground v.1.15,2013-04-19 15:58:00,
2013-04-19 12:04:00,70.3,62.4,29.72,SSW,209,5.0,8.0,76,0.00,,,0.00,1496,Wunderground v.1.15,2013-04-19 16:04:00,
2013-04-19 12:09:00,71.0,62.7,29.72,SSW,206,8.0,10.0,75,0.00,,,0.00,,Wunderground v.1.15,2013-04-19 16:09:00,
2013-04-19 12:15:00,71.7,63.7,29.72,SE,142,7.0,8.0,76,0.00,,,0.00,,Wunderground v.1.15,2013-04-19 16:15:00,
2013-04-19 12:20:00,72.0,62.9,29.72,SW,236,6.0,10.0,73,0.00,,,0.00,,Wunderground v.1.15,2013-04-19 16:20:00,
2013-04-19 12:25:00,72.1,62.6,29.72,SSW,208,9.0,19.0,72,0.00,,,0.00,,Wunderground v.1.15,2013-04-19 16:25:00,
2013-04-19 12:31:00,72.2,63.1,29.71,SW,218,9.0,13.0,73,0.00,,,0.00,,Wunderground v.1.15,2013-04-19 16:31:00,
2013-04-19 12:36:00,72.6,63.4,29.70,SW,219,8.0,13.0,73,0.00,,,0.00,,Wunderground v.1.15,2013-04-19 16:36:00,
2013-04-19 12:42:00,73.1,63.5,29.70,SW,221,7.0,8.0,72,0.00,,,0.00,,Wunderground v.1.15,2013-04-19 16:42:00,
2013-04-19 12:47:00,73.4,63.8,29.70,South,186,8.0,11.0,72,0.00,,,0.00,,Wunderground v.1.15,2013-04-19 16:47:00,
2013-04-19 12:53:00,73.6,64.0,29.69,South,175,7.0,8.0,72,0.00,,,0.00,,Wunderground v.1.15,2013-04-19 16:53:00,
2013-04-19 12:58:00,73.6,63.6,29.68,SSW,213,7.0,14.0,71,0.00,,,0.00,,Wunderground v.1.15,2013-04-19 16:58:00,
2013-04-19 13:04:00,73.7,63.3,29.68,SW,219,7.0,10.0,70,0.00,,,0.00,,Wunderground v.1.15,2013-04-19 17:04:00,
2013-04-19 13:09:00,73.9,63.5,29.68,South,176,7.0,10.0,70,0.00,,,0.00,,Wunderground v.1.15,2013-04-19 17:09:00,
2013-04-19 13:14:00,74.2,64.2,29.68,SSW,207,8.0,9.0,71,0.00,,,0.00,,Wunderground v.1.15,2013-04-19 17:14:00,
2013-04-19 13:19:00,74.3,63.9,29.67,SW,226,9.0,12.0,70,0.00,,,0.00,,Wunderground v.1.15,2013-04-19 17:19:00,
2013-04-19 13:25:00,74.5,63.2,29.66,SSE,166,9.0,17.0,68,0.00,,,0.00,,Wunderground v.1.15,2013-04-19 17:25:00,
2013-04-19 13:30:00,74.4,64.0,29.66,SSW,209,8.0,8.0,70,0.00,,,0.00,,Wunderground v.1.15,2013-04-19 17:30:00,
2013-04-19 13:36:00,74.4,63.6,29.66,SSW,208,6.0,18.0,69,0.00,,,0.00,,Wunderground v.1.15,2013-04-19 17:36:00,
2013-04-19 13:41:00,74.0,62.8,29.66,SSW,204,7.0,9.0,68,0.00,,,0.00,,Wunderground v.1.15,2013-04-19 17:41:00,
2013-04-19 13:47:00,73.9,63.9,29.65,SSE,151,7.0,9.0,71,0.00,,,0.00,,Wunderground v.1.15,2013-04-19 17:47:00,
2013-04-19 13:52:00,73.5,63.5,29.64,SE,129,4.0,5.0,71,0.00,,,0.00,,Wunderground v.1.15,2013-04-19 17:52:00,
2013-04-19 13:57:00,73.5,64.7,29.63,SSE,153,4.0,10.0,74,0.00,,,0.00,,Wunderground v.1.15,2013-04-19 17:57:00,
2013-04-19 14:03:00,73.1,64.3,29.63,SSE,163,4.0,7.0,74,0.00,,,0.00,,Wunderground v.1.15,2013-04-19 18:03:00,
2013-04-19 14:08:00,72.8,64.0,29.63,SE,143,4.0,8.0,74,0.00,,,0.00,,Wunderground v.1.15,2013-04-19 18:08:00,
2013-04-19 14:13:00,72.6,64.2,29.61,SE,128,4.0,6.0,75,0.00,,,0.00,,Wunderground v.1.15,2013-04-19 18:13:00,
2013-04-19 14:19:00,72.6,64.2,29.62,SE,126,6.0,11.0,75,0.00,,,0.00,,Wunderground v.1.15,2013-04-19 18:19:00,
2013-04-19 14:24:00,72.7,64.3,29.62,South,181,6.0,7.0,75,0.00,,,0.00,,Wunderground v.1.15,2013-04-19 18:24:00,
2013-04-19 14:30:00,72.7,63.9,29.61,SE,141,5.0,7.0,74,0.00,,,0.00,,Wunderground v.1.15,2013-04-19 18:30:00,
2013-04-19 14:35:00,72.6,64.2,29.61,South,189,5.0,9.0,75,0.00,,,0.00,,Wunderground v.1.15,2013-04-19 18:35:00,
2013-04-19 14:41:00,72.2,63.8,29.62,SSE,156,6.0,8.0,75,0.00,,,0.00,,Wunderground v.1.15,2013-04-19 18:41:00,
2013-04-19 14:46:00,72.0,64.4,29.62,SSE,150,6.0,9.0,77,0.00,,,0.00,,Wunderground v.1.15,2013-04-19 18:46:00,
2013-04-19 14:52:00,71.7,64.1,29.62,SSE,160,6.0,7.0,77,0.00,,,0.00,,Wunderground v.1.15,2013-04-19 18:52:00,
2013-04-19 14:57:00,71.5,63.9,29.62,SE,142,4.0,10.0,77,0.00,,,0.00,,Wunderground v.1.15,2013-04-19 18:57:00,
2013-04-19 15:03:00,71.4,64.2,29.61,SSE,148,5.0,11.0,78,0.00,,,0.00,,Wunderground v.1.15,2013-04-19 19:03:00,
2013-04-19 15:08:00,71.4,64.2,29.61,SW,214,5.0,11.0,78,0.00,,,0.00,,Wunderground v.1.15,2013-04-19 19:08:00,
2013-04-19 15:13:00,71.4,64.2,29.61,SE,125,3.0,5.0,78,0.00,,,0.00,,Wunderground v.1.15,2013-04-19 19:13:00,
2013-04-19 15:19:00,71.6,64.0,29.60,South,170,3.0,6.0,77,0.00,,,0.00,,Wunderground v.1.15,2013-04-19 19:19:00,
2013-04-19 15:24:00,71.9,64.3,29.60,SSE,150,4.0,10.0,77,0.00,,,0.00,,Wunderground v.1.15,2013-04-19 19:24:00,
2013-04-19 15:30:00,72.0,64.4,29.60,SW,218,4.0,7.0,77,0.00,,,0.00,,Wunderground v.1.15,2013-04-19 19:30:00,
2013-04-19 15:35:00,72.1,64.5,29.60,SSW,205,3.0,7.0,77,0.00,,,0.00,,Wunderground v.1.15,2013-04-19 19:35:00,
2013-04-19 15:41:00,72.2,64.6,29.60,SE,146,3.0,6.0,77,0.00,,,0.00,,Wunderground v.1.15,2013-04-19 19:41:00,
2013-04-19 15:46:00,72.2,64.6,29.60,SW,221,3.0,6.0,77,0.00,,,0.00,,Wunderground v.1.15,2013-04-19 19:46:00,
2013-04-19 15:51:00,72.2,64.2,29.60,SSE,161,4.0,4.0,76,0.00,,,0.00,,Wunderground v.1.15,2013-04-19 19:51:00,
2013-04-19 15:57:00,72.1,64.1,29.59,SSW,196,5.0,6.0,76,0.00,,,0.00,,Wunderground v.1.15,2013-04-19 19:57:00,
2013-04-19 16:02:00,72.3,63.9,29.59,SW,218,5.0,10.0,75,0.00,,,0.00,,Wunderground v.1.15,2013-04-19 20:02:00,
2013-04-19 16:08:00,72.4,64.0,29.58,SE,130,5.0,10.0,75,0.00,,,0.00,,Wunderground v.1.15,2013-04-19 20:08:00,
2013-04-19 16:13:00,72.4,64.0,29.58,SSW,213,4.0,6.0,75,0.00,,,0.00,,Wunderground v.1.15,2013-04-19 20:13:00,
2013-04-19 16:19:00,72.4,64.0,29.58,SSW,202,4.0,6.0,75,0.00,,,0.00,,Wunderground v.1.15,2013-04-19 20:19:00,
2013-04-19 16:24:00,72.4,64.0,29.58,SE,145,3.0,6.0,75,0.00,,,0.00,,Wunderground v.1.15,2013-04-19 20:24:00,
2013-04-19 16:30:00,72.4,64.4,29.57,SSW,205,2.0,2.0,76,0.00,,,0.00,,Wunderground v.1.15,2013-04-19 20:30:00,
2013-04-19 16:36:00,72.1,64.5,29.57,SSW,205,4.0,7.0,77,0.00,,,0.00,,Wunderground v.1.15,2013-04-19 20:36:00,
2013-04-19 16:41:00,72.0,64.8,29.57,SW,219,4.0,4.0,78,0.00,,,0.00,,Wunderground v.1.15,2013-04-19 20:41:00,
2013-04-19 16:47:00,71.7,64.5,29.58,SSW,205,4.0,5.0,78,0.00,,,0.00,,Wunderground v.1.15,2013-04-19 20:47:00,
2013-04-19 16:52:00,71.5,64.6,29.58,SSW,205,4.0,4.0,79,0.00,,,0.00,,Wunderground v.1.15,2013-04-19 20:52:00,
2013-04-19 16:58:00,71.3,64.8,29.58,SW,219,4.0,6.0,80,0.00,,,0.01,,Wunderground v.1.15,2013-04-19 20:58:00,
2013-04-19 17:03:00,70.7,65.3,29.58,SW,218,4.0,5.0,83,0.24,,,0.02,,Wunderground v.1.15,2013-04-19 21:03:00,
2013-04-19 17:09:00,69.8,65.1,29.59,SSW,207,3.0,5.0,85,0.25,,,0.05,,Wunderground v.1.15,2013-04-19 21:09:00,
2013-04-19 17:14:00,69.1,65.1,29.59,SW,218,4.0,6.0,87,0.15,,,0.07,,Wunderground v.1.15,2013-04-19 21:14:00,
2013-04-19 17:20:00,68.4,64.7,29.60,SSW,210,5.0,6.0,88,0.13,,,0.08,1485,Wunderground v.1.15,2013-04-19 21:20:00,
2013-04-19 17:25:00,68.0,64.6,29.60,SW,226,6.0,6.0,89,0.14,,,0.09,1470,Wunderground v.1.15,2013-04-19 21:25:00,
2013-04-19 17:31:00,67.5,64.8,29.62,WSW,240,7.0,10.0,91,0.20,,,0.12,1454,Wunderground v.1.15,2013-04-19 21:31:00,
2013-04-19 17:36:00,67.2,64.8,29.62,WSW,250,9.0,12.0,92,0.11,,,0.12,1443,Wunderground v.1.15,2013-04-19 21:36:00,
2013-04-19 17:41:00,66.9,64.8,29.62,West,260,9.0,9.0,93,0.18,,,0.14,1429,Wunderground v.1.15,2013-04-19 21:41:00,
2013-04-19 17:47:00,65.9,63.5,29.62,West,259,10.0,13.0,92,0.30,,,0.17,1419,Wunderground v.1.15,2013-04-19 21:47:00,
2013-04-19 17:52:00,64.9,62.5,29.61,WNW,300,10.0,18.0,92,0.22,,,0.19,1415,Wunderground v.1.15,2013-04-19 21:52:00,
2013-04-19 17:58:00,63.4,61.0,29.64,SW,225,12.0,20.0,92,2.52,,,0.41,1413,Wunderground v.1.15,2013-04-19 21:58:00,
2013-04-19 18:03:00,62.3,60.2,29.63,SSW,198,12.0,14.0,93,1.10,,,0.49,1410,Wunderground v.1.15,2013-04-19 22:03:00,
2013-04-19 18:09:00,62.4,60.7,29.62,SW,217,11.0,19.0,94,0.24,,,0.52,1403,Wunderground v.1.15,2013-04-19 22:09:00,
2013-04-19 18:14:00,62.2,60.5,29.62,SW,216,13.0,14.0,94,0.18,,,0.54,1397,Wunderground v.1.15,2013-04-19 22:14:00,
2013-04-19 18:20:00,61.9,60.2,29.63,SW,225,12.0,17.0,94,0.09,,,0.55,1390,Wunderground v.1.15,2013-04-19 22:20:00,
2013-04-19 18:25:00,61.8,60.1,29.64,WSW,242,10.0,17.0,94,0.08,,,0.55,1385,Wunderground v.1.15,2013-04-19 22:25:00,
2013-04-19 18:30:00,61.6,60.2,29.64,WSW,248,9.0,9.0,95,0.13,,,0.57,1382,Wunderground v.1.15,2013-04-19 22:30:00,
2013-04-19 18:36:00,61.5,60.1,29.64,West,271,8.0,11.0,95,0.18,,,0.58,1378,Wunderground v.1.15,2013-04-19 22:36:00,
2013-04-19 18:41:00,61.4,60.0,29.63,WNW,287,4.0,6.0,95,0.08,,,0.58,1375,Wunderground v.1.15,2013-04-19 22:41:00,
2013-04-19 18:47:00,61.3,59.9,29.64,NNW,338,3.0,6.0,95,0.08,,,0.59,1373,Wunderground v.1.15,2013-04-19 22:47:00,
2013-04-19 18:52:00,61.1,59.7,29.63,NW,304,4.0,5.0,95,0.05,,,0.59,1369,Wunderground v.1.15,2013-04-19 22:52:00,
2013-04-19 18:58:00,60.0,58.6,29.64,NW,323,7.0,15.0,95,0.05,,,0.60,1368,Wunderground v.1.15,2013-04-19 22:58:00,
2013-04-19 19:03:00,58.7,57.0,29.64,NNW,327,10.0,13.0,94,0.05,,,0.60,1369,Wunderground v.1.15,2013-04-19 23:03:00,
2013-04-19 19:09:00,57.8,56.1,29.65,NW,320,11.0,13.0,94,0.04,,,0.60,1369,Wunderground v.1.15,2013-04-19 23:09:00,
2013-04-19 19:14:00,57.3,55.6,29.65,WNW,289,10.0,11.0,94,0.00,,,0.60,1371,Wunderground v.1.15,2013-04-19 23:14:00,
2013-04-19 19:20:00,56.9,55.2,29.66,WNW,291,8.0,8.0,94,0.00,,,0.60,1373,Wunderground v.1.15,2013-04-19 23:20:00,
2013-04-19 19:25:00,56.5,54.8,29.67,NW,311,5.0,8.0,94,0.00,,,0.60,1373,Wunderground v.1.15,2013-04-19 23:25:00,
2013-04-19 19:31:00,56.1,54.1,29.67,WNW,301,5.0,9.0,93,0.00,,,0.60,1371,Wunderground v.1.15,2013-04-19 23:31:00,
2013-04-19 19:36:00,55.9,53.9,29.66,NW,306,7.0,14.0,93,0.00,,,0.60,1371,Wunderground v.1.15,2013-04-19 23:36:00,
2013-04-19 19:41:00,55.8,53.8,29.67,NW,306,9.0,9.0,93,0.00,,,0.60,1369,Wunderground v.1.15,2013-04-19 23:41:00,
2013-04-19 19:47:00,55.7,53.4,29.66,West,260,9.0,12.0,92,0.00,,,0.60,1369,Wunderground v.1.15,2013-04-19 23:47:00,
2013-04-19 19:52:00,55.7,53.1,29.67,West,280,9.0,10.0,91,0.00,,,0.60,1368,Wunderground v.1.15,2013-04-19 23:52:00,
2013-04-19 19:57:00,55.8,52.9,29.67,WNW,292,8.0,10.0,90,0.00,,,0.60,1366,Wunderground v.1.15,2013-04-19 23:57:00,
2013-04-19 20:03:00,55.7,52.5,29.66,West,265,7.0,11.0,89,0.00,,,0.60,1362,Wunderground v.1.15,2013-04-20 00:03:00,
2013-04-19 20:09:00,55.7,52.2,29.67,WNW,283,7.0,11.0,88,0.00,,,0.60,1362,Wunderground v.1.15,2013-04-20 00:09:00,
2013-04-19 20:15:00,55.5,51.7,29.68,NNW,330,6.0,8.0,87,0.00,,,0.60,1362,Wunderground v.1.15,2013-04-20 00:15:00,
2013-04-19 20:20:00,55.5,50.7,29.68,WNW,292,6.0,6.0,84,0.00,,,0.60,1361,Wunderground v.1.15,2013-04-20 00:20:00,
2013-04-19 20:26:00,55.5,50.4,29.68,WNW,296,6.0,8.0,83,0.00,,,0.60,1361,Wunderground v.1.15,2013-04-20 00:26:00,
2013-04-19 20:31:00,55.5,50.4,29.69,West,266,4.0,6.0,83,0.00,,,0.60,1359,Wunderground v.1.15,2013-04-20 00:31:00,
2013-04-19 20:37:00,55.6,50.8,29.70,NW,314,5.0,9.0,84,0.00,,,0.60,1357,Wunderground v.1.15,2013-04-20 00:37:00,
2013-04-19 20:42:00,55.5,50.7,29.71,NW,304,6.0,6.0,84,0.00,,,0.60,1355,Wunderground v.1.15,2013-04-20 00:42:00,
2013-04-19 20:47:00,55.5,50.4,29.72,NW,316,4.0,6.0,83,0.00,,,0.60,1352,Wunderground v.1.15,2013-04-20 00:47:00,
2013-04-19 20:53:00,55.3,50.2,29.72,NW,315,5.0,6.0,83,0.00,,,0.60,1350,Wunderground v.1.15,2013-04-20 00:53:00,
2013-04-19 20:59:00,55.3,50.2,29.73,NW,315,4.0,6.0,83,0.00,,,0.60,1348,Wunderground v.1.15,2013-04-20 00:59:00,
2013-04-19 21:04:00,55.1,49.7,29.73,WNW,297,3.0,6.0,82,0.00,,,0.60,1348,Wunderground v.1.15,2013-04-20 01:04:00,
2013-04-19 21:10:00,55.0,49.9,29.74,WNW,297,2.0,2.0,83,0.00,,,0.60,1346,Wunderground v.1.15,2013-04-20 01:10:00,
2013-04-19 21:15:00,54.8,49.4,29.74,WNW,298,1.0,3.0,82,0.00,,,0.60,1345,Wunderground v.1.15,2013-04-20 01:15:00,
2013-04-19 21:20:00,54.4,48.4,29.75,NW,304,3.0,4.0,80,0.00,,,0.60,1345,Wunderground v.1.15,2013-04-20 01:20:00,
2013-04-19 21:26:00,54.1,48.1,29.74,NW,309,4.0,4.0,80,0.00,,,0.60,1345,Wunderground v.1.15,2013-04-20 01:26:00,